sensor_id;sensor_type;location;lat;lon;timestamp;P1;durP1;ratioP1;P2;durP2;ratioP2
9496;SDS011;4786;51.270;4.456;2023-09-19T00:01:07;7.77;;;3.03;;
9496;SDS011;4786;51.270;4.456;2023-09-19T00:03:34;12.87;;;3.37;;
9496;SDS011;4786;51.270;4.456;2023-09-19T00:06:02;8.40;;;2.93;;
9496;SDS011;4786;51.270;4.456;2023-09-19T00:08:32;9.77;;;3.07;;
9496;SDS011;4786;51.270;4.456;2023-09-19T00:10:58;11.57;;;3.27;;
9496;SDS011;4786;51.270;4.456;2023-09-19T00:13:30;11.67;;;3.30;;
9496;SDS011;4786;51.270;4.456;2023-09-19T00:16:01;9.87;;;3.37;;
9496;SDS011;4786;51.270;4.456;2023-09-19T00:18:40;9.10;;;3.03;;
9496;SDS011;4786;51.270;4.456;2023-09-19T00:21:12;8.87;;;2.87;;
9496;SDS011;4786;51.270;4.456;2023-09-19T00:23:38;9.50;;;2.90;;
9496;SDS011;4786;51.270;4.456;2023-09-19T00:26:06;16.30;;;3.30;;
9496;SDS011;4786;51.270;4.456;2023-09-19T00:28:34;12.63;;;3.33;;
9496;SDS011;4786;51.270;4.456;2023-09-19T00:31:03;7.50;;;3.17;;
9496;SDS011;4786;51.270;4.456;2023-09-19T00:33:32;8.97;;;2.63;;
9496;SDS011;4786;51.270;4.456;2023-09-19T00:36:03;8.87;;;3.30;;
9496;SDS011;4786;51.270;4.456;2023-09-19T00:38:32;10.73;;;3.07;;
9496;SDS011;4786;51.270;4.456;2023-09-19T00:41:01;10.43;;;3.10;;
9496;SDS011;4786;51.270;4.456;2023-09-19T00:43:27;8.13;;;2.70;;
9496;SDS011;4786;51.270;4.456;2023-09-19T00:45:54;8.77;;;3.00;;
9496;SDS011;4786;51.270;4.456;2023-09-19T00:48:22;9.83;;;2.87;;
9496;SDS011;4786;51.270;4.456;2023-09-19T00:50:56;8.67;;;2.97;;
9496;SDS011;4786;51.270;4.456;2023-09-19T00:53:26;10.77;;;3.10;;
9496;SDS011;4786;51.270;4.456;2023-09-19T00:55:52;10.63;;;2.93;;
9496;SDS011;4786;51.270;4.456;2023-09-19T00:58:19;7.87;;;2.83;;
9496;SDS011;4786;51.270;4.456;2023-09-19T01:00:48;7.60;;;2.70;;
9496;SDS011;4786;51.270;4.456;2023-09-19T01:03:15;10.17;;;2.80;;
9496;SDS011;4786;51.270;4.456;2023-09-19T01:05:44;11.13;;;2.60;;
9496;SDS011;4786;51.270;4.456;2023-09-19T01:08:16;8.20;;;3.23;;
9496;SDS011;4786;51.270;4.456;2023-09-19T01:13:45;6.60;;;2.80;;
9496;SDS011;4786;51.270;4.456;2023-09-19T01:30:39;10.17;;;2.77;;
9496;SDS011;4786;51.270;4.456;2023-09-19T01:33:12;9.30;;;3.00;;
9496;SDS011;4786;51.270;4.456;2023-09-19T01:35:39;9.37;;;2.87;;
9496;SDS011;4786;51.270;4.456;2023-09-19T01:38:05;10.07;;;3.17;;
9496;SDS011;4786;51.270;4.456;2023-09-19T01:40:36;11.73;;;3.20;;
9496;SDS011;4786;51.270;4.456;2023-09-19T01:50:58;10.50;;;3.53;;
9496;SDS011;4786;51.270;4.456;2023-09-19T01:53:45;7.80;;;2.90;;
9496;SDS011;4786;51.270;4.456;2023-09-19T01:56:29;10.17;;;2.70;;
9496;SDS011;4786;51.270;4.456;2023-09-19T01:58:59;12.40;;;3.27;;
9496;SDS011;4786;51.270;4.456;2023-09-19T02:01:36;7.20;;;3.10;;
9496;SDS011;4786;51.270;4.456;2023-09-19T02:04:09;11.67;;;2.97;;
9496;SDS011;4786;51.270;4.456;2023-09-19T02:06:38;7.53;;;2.80;;
9496;SDS011;4786;51.270;4.456;2023-09-19T02:09:05;11.70;;;3.43;;
9496;SDS011;4786;51.270;4.456;2023-09-19T02:11:32;17.87;;;3.10;;
9496;SDS011;4786;51.270;4.456;2023-09-19T02:13:58;11.77;;;3.10;;
9496;SDS011;4786;51.270;4.456;2023-09-19T02:16:33;11.30;;;2.90;;
9496;SDS011;4786;51.270;4.456;2023-09-19T02:19:02;10.20;;;2.97;;
9496;SDS011;4786;51.270;4.456;2023-09-19T02:21:31;10.13;;;2.97;;
9496;SDS011;4786;51.270;4.456;2023-09-19T02:23:58;9.60;;;2.97;;
9496;SDS011;4786;51.270;4.456;2023-09-19T02:26:24;10.83;;;3.10;;
9496;SDS011;4786;51.270;4.456;2023-09-19T02:28:50;10.83;;;2.90;;
9496;SDS011;4786;51.270;4.456;2023-09-19T02:31:16;9.87;;;3.30;;
9496;SDS011;4786;51.270;4.456;2023-09-19T02:33:41;11.20;;;2.73;;
9496;SDS011;4786;51.270;4.456;2023-09-19T02:36:08;9.20;;;3.13;;
9496;SDS011;4786;51.270;4.456;2023-09-19T02:38:43;9.93;;;2.87;;
9496;SDS011;4786;51.270;4.456;2023-09-19T02:41:09;10.83;;;2.93;;
9496;SDS011;4786;51.270;4.456;2023-09-19T02:43:37;8.60;;;3.40;;
9496;SDS011;4786;51.270;4.456;2023-09-19T02:46:06;10.63;;;3.30;;
9496;SDS011;4786;51.270;4.456;2023-09-19T02:48:34;13.80;;;3.37;;
9496;SDS011;4786;51.270;4.456;2023-09-19T02:51:01;10.97;;;3.23;;
9496;SDS011;4786;51.270;4.456;2023-09-19T02:53:30;8.43;;;3.20;;
9496;SDS011;4786;51.270;4.456;2023-09-19T02:55:57;10.30;;;3.50;;
9496;SDS011;4786;51.270;4.456;2023-09-19T02:58:25;9.70;;;2.83;;
9496;SDS011;4786;51.270;4.456;2023-09-19T03:00:56;11.97;;;3.27;;
9496;SDS011;4786;51.270;4.456;2023-09-19T03:03:22;10.83;;;3.53;;
9496;SDS011;4786;51.270;4.456;2023-09-19T03:05:48;10.43;;;3.07;;
9496;SDS011;4786;51.270;4.456;2023-09-19T03:08:18;11.33;;;3.37;;
9496;SDS011;4786;51.270;4.456;2023-09-19T03:10:47;12.13;;;3.23;;
9496;SDS011;4786;51.270;4.456;2023-09-19T03:13:14;13.57;;;3.30;;
9496;SDS011;4786;51.270;4.456;2023-09-19T03:15:43;15.90;;;3.37;;
9496;SDS011;4786;51.270;4.456;2023-09-19T03:18:12;8.57;;;3.17;;
9496;SDS011;4786;51.270;4.456;2023-09-19T03:20:41;15.27;;;3.53;;
9496;SDS011;4786;51.270;4.456;2023-09-19T03:23:17;12.83;;;3.50;;
9496;SDS011;4786;51.270;4.456;2023-09-19T03:25:45;13.70;;;3.87;;
9496;SDS011;4786;51.270;4.456;2023-09-19T03:28:11;15.17;;;3.43;;
9496;SDS011;4786;51.270;4.456;2023-09-19T03:30:38;10.03;;;3.43;;
9496;SDS011;4786;51.270;4.456;2023-09-19T03:33:04;11.73;;;3.27;;
9496;SDS011;4786;51.270;4.456;2023-09-19T03:35:32;8.43;;;3.27;;
9496;SDS011;4786;51.270;4.456;2023-09-19T03:37:58;15.53;;;3.70;;
9496;SDS011;4786;51.270;4.456;2023-09-19T03:40:28;11.47;;;3.23;;
9496;SDS011;4786;51.270;4.456;2023-09-19T03:42:54;11.37;;;2.97;;
9496;SDS011;4786;51.270;4.456;2023-09-19T03:45:26;11.47;;;2.93;;
9496;SDS011;4786;51.270;4.456;2023-09-19T03:47:52;10.80;;;3.20;;
9496;SDS011;4786;51.270;4.456;2023-09-19T03:50:18;15.00;;;3.73;;
9496;SDS011;4786;51.270;4.456;2023-09-19T03:52:44;8.90;;;2.93;;
9496;SDS011;4786;51.270;4.456;2023-09-19T03:55:10;10.30;;;3.47;;
9496;SDS011;4786;51.270;4.456;2023-09-19T03:57:41;10.33;;;3.10;;
9496;SDS011;4786;51.270;4.456;2023-09-19T04:00:07;10.87;;;3.10;;
9496;SDS011;4786;51.270;4.456;2023-09-19T04:02:36;8.77;;;2.87;;
9496;SDS011;4786;51.270;4.456;2023-09-19T04:05:03;10.73;;;3.67;;
9496;SDS011;4786;51.270;4.456;2023-09-19T04:07:31;8.73;;;3.00;;
9496;SDS011;4786;51.270;4.456;2023-09-19T04:10:00;10.77;;;3.27;;
9496;SDS011;4786;51.270;4.456;2023-09-19T04:12:30;12.33;;;3.53;;
9496;SDS011;4786;51.270;4.456;2023-09-19T04:14:58;10.53;;;3.30;;
9496;SDS011;4786;51.270;4.456;2023-09-19T04:17:26;6.57;;;3.10;;
9496;SDS011;4786;51.270;4.456;2023-09-19T04:19:52;9.93;;;2.87;;
9496;SDS011;4786;51.270;4.456;2023-09-19T04:22:18;10.07;;;3.07;;
9496;SDS011;4786;51.270;4.456;2023-09-19T04:24:47;11.13;;;3.37;;
9496;SDS011;4786;51.270;4.456;2023-09-19T04:27:13;10.73;;;3.30;;
9496;SDS011;4786;51.270;4.456;2023-09-19T04:29:41;10.37;;;3.30;;
9496;SDS011;4786;51.270;4.456;2023-09-19T04:32:07;11.03;;;3.10;;
9496;SDS011;4786;51.270;4.456;2023-09-19T04:34:34;6.67;;;2.43;;
9496;SDS011;4786;51.270;4.456;2023-09-19T04:37:00;7.03;;;3.30;;
9496;SDS011;4786;51.270;4.456;2023-09-19T04:39:29;10.30;;;3.40;;
9496;SDS011;4786;51.270;4.456;2023-09-19T04:42:02;11.90;;;3.20;;
9496;SDS011;4786;51.270;4.456;2023-09-19T04:44:42;12.30;;;3.40;;
9496;SDS011;4786;51.270;4.456;2023-09-19T04:47:08;10.33;;;3.20;;
9496;SDS011;4786;51.270;4.456;2023-09-19T04:49:34;13.07;;;3.83;;
9496;SDS011;4786;51.270;4.456;2023-09-19T04:52:02;10.83;;;3.20;;
9496;SDS011;4786;51.270;4.456;2023-09-19T04:54:31;12.57;;;3.43;;
9496;SDS011;4786;51.270;4.456;2023-09-19T04:56:58;14.03;;;4.07;;
9496;SDS011;4786;51.270;4.456;2023-09-19T04:59:28;12.33;;;3.63;;
9496;SDS011;4786;51.270;4.456;2023-09-19T05:01:54;10.77;;;3.47;;
9496;SDS011;4786;51.270;4.456;2023-09-19T05:04:26;12.67;;;3.33;;
9496;SDS011;4786;51.270;4.456;2023-09-19T05:06:52;13.17;;;3.67;;
9496;SDS011;4786;51.270;4.456;2023-09-19T05:09:22;13.00;;;3.73;;
9496;SDS011;4786;51.270;4.456;2023-09-19T05:11:49;10.30;;;3.10;;
9496;SDS011;4786;51.270;4.456;2023-09-19T05:14:25;13.57;;;3.70;;
9496;SDS011;4786;51.270;4.456;2023-09-19T05:16:57;15.43;;;3.70;;
9496;SDS011;4786;51.270;4.456;2023-09-19T05:19:26;9.30;;;3.40;;
9496;SDS011;4786;51.270;4.456;2023-09-19T05:21:52;14.90;;;3.77;;
9496;SDS011;4786;51.270;4.456;2023-09-19T05:24:20;13.97;;;3.60;;
9496;SDS011;4786;51.270;4.456;2023-09-19T05:26:51;11.50;;;3.93;;
9496;SDS011;4786;51.270;4.456;2023-09-19T05:29:17;16.77;;;3.40;;
9496;SDS011;4786;51.270;4.456;2023-09-19T05:31:43;14.20;;;3.70;;
9496;SDS011;4786;51.270;4.456;2023-09-19T05:34:09;13.27;;;3.33;;
9496;SDS011;4786;51.270;4.456;2023-09-19T05:36:35;10.53;;;3.53;;
9496;SDS011;4786;51.270;4.456;2023-09-19T05:39:01;10.83;;;4.07;;
9496;SDS011;4786;51.270;4.456;2023-09-19T05:41:30;13.00;;;3.57;;
9496;SDS011;4786;51.270;4.456;2023-09-19T05:43:56;12.53;;;3.43;;
9496;SDS011;4786;51.270;4.456;2023-09-19T05:46:22;15.13;;;4.00;;
9496;SDS011;4786;51.270;4.456;2023-09-19T05:48:48;22.00;;;4.37;;
9496;SDS011;4786;51.270;4.456;2023-09-19T05:51:17;15.10;;;3.63;;
9496;SDS011;4786;51.270;4.456;2023-09-19T05:53:43;10.20;;;3.90;;
9496;SDS011;4786;51.270;4.456;2023-09-19T05:56:13;10.57;;;3.67;;
9496;SDS011;4786;51.270;4.456;2023-09-19T05:58:44;17.93;;;4.33;;
9496;SDS011;4786;51.270;4.456;2023-09-19T06:01:09;15.53;;;3.93;;
9496;SDS011;4786;51.270;4.456;2023-09-19T06:03:42;15.07;;;3.33;;
9496;SDS011;4786;51.270;4.456;2023-09-19T06:06:08;13.07;;;3.17;;
9496;SDS011;4786;51.270;4.456;2023-09-19T06:08:34;10.37;;;3.43;;
9496;SDS011;4786;51.270;4.456;2023-09-19T06:11:03;13.07;;;3.60;;
9496;SDS011;4786;51.270;4.456;2023-09-19T06:13:32;14.87;;;3.97;;
9496;SDS011;4786;51.270;4.456;2023-09-19T06:15:58;10.80;;;3.30;;
9496;SDS011;4786;51.270;4.456;2023-09-19T06:18:31;14.13;;;3.60;;
9496;SDS011;4786;51.270;4.456;2023-09-19T06:20:58;13.97;;;3.53;;
9496;SDS011;4786;51.270;4.456;2023-09-19T06:23:34;12.60;;;3.73;;
9496;SDS011;4786;51.270;4.456;2023-09-19T06:26:03;9.40;;;3.40;;
9496;SDS011;4786;51.270;4.456;2023-09-19T06:28:31;10.90;;;3.60;;
9496;SDS011;4786;51.270;4.456;2023-09-19T06:31:02;12.97;;;3.23;;
9496;SDS011;4786;51.270;4.456;2023-09-19T06:33:28;10.97;;;3.00;;
9496;SDS011;4786;51.270;4.456;2023-09-19T06:35:56;15.57;;;3.40;;
9496;SDS011;4786;51.270;4.456;2023-09-19T06:38:25;11.10;;;3.37;;
9496;SDS011;4786;51.270;4.456;2023-09-19T06:40:51;13.17;;;3.37;;
9496;SDS011;4786;51.270;4.456;2023-09-19T06:43:24;12.73;;;3.90;;
9496;SDS011;4786;51.270;4.456;2023-09-19T06:45:56;12.13;;;3.80;;
9496;SDS011;4786;51.270;4.456;2023-09-19T06:48:25;12.43;;;3.70;;
9496;SDS011;4786;51.270;4.456;2023-09-19T06:50:52;11.77;;;3.50;;
9496;SDS011;4786;51.270;4.456;2023-09-19T06:53:23;12.33;;;3.40;;
9496;SDS011;4786;51.270;4.456;2023-09-19T06:55:50;11.50;;;3.30;;
9496;SDS011;4786;51.270;4.456;2023-09-19T06:58:19;9.50;;;3.37;;
9496;SDS011;4786;51.270;4.456;2023-09-19T07:00:53;13.93;;;3.60;;
9496;SDS011;4786;51.270;4.456;2023-09-19T07:03:19;12.43;;;3.23;;
9496;SDS011;4786;51.270;4.456;2023-09-19T07:05:51;14.87;;;3.70;;
9496;SDS011;4786;51.270;4.456;2023-09-19T07:08:17;13.57;;;3.63;;
9496;SDS011;4786;51.270;4.456;2023-09-19T07:10:46;10.93;;;3.67;;
9496;SDS011;4786;51.270;4.456;2023-09-19T07:13:17;14.63;;;4.20;;
9496;SDS011;4786;51.270;4.456;2023-09-19T07:15:49;12.53;;;3.67;;
9496;SDS011;4786;51.270;4.456;2023-09-19T07:18:22;11.90;;;3.10;;
9496;SDS011;4786;51.270;4.456;2023-09-19T07:20:47;11.07;;;3.47;;
9496;SDS011;4786;51.270;4.456;2023-09-19T07:23:17;14.10;;;3.83;;
9496;SDS011;4786;51.270;4.456;2023-09-19T07:25:44;15.40;;;3.80;;
9496;SDS011;4786;51.270;4.456;2023-09-19T07:28:11;11.33;;;3.90;;
9496;SDS011;4786;51.270;4.456;2023-09-19T07:30:37;11.50;;;3.50;;
9496;SDS011;4786;51.270;4.456;2023-09-19T07:33:04;9.33;;;3.33;;
9496;SDS011;4786;51.270;4.456;2023-09-19T07:35:47;11.03;;;3.00;;
9496;SDS011;4786;51.270;4.456;2023-09-19T07:38:16;13.63;;;3.40;;
9496;SDS011;4786;51.270;4.456;2023-09-19T07:40:45;11.83;;;3.13;;
9496;SDS011;4786;51.270;4.456;2023-09-19T07:43:11;15.87;;;3.33;;
9496;SDS011;4786;51.270;4.456;2023-09-19T07:45:43;12.27;;;3.37;;
9496;SDS011;4786;51.270;4.456;2023-09-19T07:48:09;8.07;;;2.70;;
9496;SDS011;4786;51.270;4.456;2023-09-19T07:50:40;11.23;;;3.33;;
9496;SDS011;4786;51.270;4.456;2023-09-19T07:53:08;8.60;;;2.80;;
9496;SDS011;4786;51.270;4.456;2023-09-19T07:55:34;13.57;;;3.23;;
9496;SDS011;4786;51.270;4.456;2023-09-19T07:58:00;13.83;;;3.17;;
9496;SDS011;4786;51.270;4.456;2023-09-19T08:00:28;11.50;;;3.30;;
9496;SDS011;4786;51.270;4.456;2023-09-19T08:02:54;13.30;;;3.10;;
9496;SDS011;4786;51.270;4.456;2023-09-19T08:05:25;9.40;;;3.30;;
9496;SDS011;4786;51.270;4.456;2023-09-19T08:07:52;14.57;;;3.50;;
9496;SDS011;4786;51.270;4.456;2023-09-19T08:10:18;10.13;;;3.20;;
9496;SDS011;4786;51.270;4.456;2023-09-19T08:12:46;10.23;;;3.27;;
9496;SDS011;4786;51.270;4.456;2023-09-19T08:15:17;14.47;;;3.60;;
9496;SDS011;4786;51.270;4.456;2023-09-19T08:17:46;8.53;;;3.17;;
9496;SDS011;4786;51.270;4.456;2023-09-19T08:20:13;11.33;;;3.40;;
9496;SDS011;4786;51.270;4.456;2023-09-19T08:22:52;14.53;;;3.50;;
9496;SDS011;4786;51.270;4.456;2023-09-19T08:25:19;13.27;;;3.43;;
9496;SDS011;4786;51.270;4.456;2023-09-19T08:27:48;7.83;;;3.53;;
9496;SDS011;4786;51.270;4.456;2023-09-19T08:30:18;13.10;;;3.60;;
9496;SDS011;4786;51.270;4.456;2023-09-19T08:32:49;7.90;;;2.83;;
9496;SDS011;4786;51.270;4.456;2023-09-19T08:35:21;11.40;;;3.50;;
9496;SDS011;4786;51.270;4.456;2023-09-19T08:37:48;12.30;;;3.33;;
9496;SDS011;4786;51.270;4.456;2023-09-19T08:40:20;14.07;;;3.90;;
9496;SDS011;4786;51.270;4.456;2023-09-19T08:42:50;11.23;;;3.43;;
9496;SDS011;4786;51.270;4.456;2023-09-19T08:45:16;16.50;;;3.40;;
9496;SDS011;4786;51.270;4.456;2023-09-19T08:50:52;7.93;;;2.87;;
9496;SDS011;4786;51.270;4.456;2023-09-19T08:53:41;14.40;;;3.70;;
9496;SDS011;4786;51.270;4.456;2023-09-19T08:56:13;14.83;;;3.33;;
9496;SDS011;4786;51.270;4.456;2023-09-19T08:58:55;10.17;;;3.27;;
9496;SDS011;4786;51.270;4.456;2023-09-19T09:01:27;13.10;;;3.40;;
9496;SDS011;4786;51.270;4.456;2023-09-19T09:03:57;12.73;;;3.30;;
9496;SDS011;4786;51.270;4.456;2023-09-19T09:06:24;14.90;;;3.30;;
9496;SDS011;4786;51.270;4.456;2023-09-19T09:08:51;10.27;;;3.00;;
9496;SDS011;4786;51.270;4.456;2023-09-19T09:11:20;17.53;;;3.70;;
9496;SDS011;4786;51.270;4.456;2023-09-19T09:14:04;16.83;;;3.37;;
9496;SDS011;4786;51.270;4.456;2023-09-19T09:16:34;11.57;;;3.10;;
9496;SDS011;4786;51.270;4.456;2023-09-19T09:19:00;11.30;;;3.10;;
9496;SDS011;4786;51.270;4.456;2023-09-19T09:21:29;12.13;;;3.17;;
9496;SDS011;4786;51.270;4.456;2023-09-19T09:24:04;10.53;;;3.27;;
9496;SDS011;4786;51.270;4.456;2023-09-19T09:26:59;16.73;;;3.37;;
9496;SDS011;4786;51.270;4.456;2023-09-19T09:34:58;8.23;;;3.07;;
9496;SDS011;4786;51.270;4.456;2023-09-19T09:37:28;9.97;;;3.20;;
9496;SDS011;4786;51.270;4.456;2023-09-19T09:39:58;9.83;;;2.83;;
9496;SDS011;4786;51.270;4.456;2023-09-19T09:42:43;11.97;;;3.00;;
9496;SDS011;4786;51.270;4.456;2023-09-19T09:48:00;12.63;;;2.60;;
9496;SDS011;4786;51.270;4.456;2023-09-19T09:50:39;7.30;;;2.47;;
9496;SDS011;4786;51.270;4.456;2023-09-19T09:53:28;11.80;;;2.80;;
9496;SDS011;4786;51.270;4.456;2023-09-19T09:56:02;8.63;;;3.08;;
9496;SDS011;4786;51.270;4.456;2023-09-19T09:58:31;9.27;;;2.83;;
9496;SDS011;4786;51.270;4.456;2023-09-19T10:01:16;10.32;;;2.70;;
9496;SDS011;4786;51.270;4.456;2023-09-19T10:03:43;7.60;;;2.58;;
9496;SDS011;4786;51.270;4.456;2023-09-19T10:06:16;8.82;;;2.53;;
9496;SDS011;4786;51.270;4.456;2023-09-19T10:08:59;10.13;;;2.75;;
9496;SDS011;4786;51.270;4.456;2023-09-19T10:12:07;8.52;;;2.35;;
9496;SDS011;4786;51.270;4.456;2023-09-19T10:14:41;6.18;;;2.42;;
9496;SDS011;4786;51.270;4.456;2023-09-19T10:17:12;7.15;;;2.65;;
9496;SDS011;4786;51.270;4.456;2023-09-19T10:22:24;8.30;;;2.05;;
9496;SDS011;4786;51.270;4.456;2023-09-19T10:24:53;8.13;;;2.47;;
9496;SDS011;4786;51.270;4.456;2023-09-19T10:27:19;13.05;;;2.30;;
9496;SDS011;4786;51.270;4.456;2023-09-19T10:29:48;8.90;;;2.20;;
9496;SDS011;4786;51.270;4.456;2023-09-19T10:32:21;8.02;;;2.42;;
9496;SDS011;4786;51.270;4.456;2023-09-19T10:34:58;6.20;;;2.20;;
9496;SDS011;4786;51.270;4.456;2023-09-19T10:37:27;7.97;;;2.50;;
9496;SDS011;4786;51.270;4.456;2023-09-19T10:39:55;7.63;;;2.55;;
9496;SDS011;4786;51.270;4.456;2023-09-19T10:42:22;6.10;;;2.40;;
9496;SDS011;4786;51.270;4.456;2023-09-19T10:44:54;6.07;;;1.92;;
9496;SDS011;4786;51.270;4.456;2023-09-19T10:47:25;6.50;;;2.42;;
9496;SDS011;4786;51.270;4.456;2023-09-19T10:49:54;5.28;;;1.95;;
9496;SDS011;4786;51.270;4.456;2023-09-19T10:52:24;6.25;;;2.40;;
9496;SDS011;4786;51.270;4.456;2023-09-19T10:54:58;6.15;;;1.95;;
9496;SDS011;4786;51.270;4.456;2023-09-19T10:57:26;6.15;;;2.00;;
9496;SDS011;4786;51.270;4.456;2023-09-19T11:05:40;6.78;;;2.17;;
9496;SDS011;4786;51.270;4.456;2023-09-19T11:08:25;6.60;;;2.10;;
9496;SDS011;4786;51.270;4.456;2023-09-19T11:10:51;8.10;;;2.20;;
9496;SDS011;4786;51.270;4.456;2023-09-19T11:13:24;6.07;;;1.83;;
9496;SDS011;4786;51.270;4.456;2023-09-19T11:27:08;4.82;;;1.80;;
9496;SDS011;4786;51.270;4.456;2023-09-19T11:29:38;3.90;;;1.60;;
9496;SDS011;4786;51.270;4.456;2023-09-19T11:32:05;3.55;;;1.75;;
9496;SDS011;4786;51.270;4.456;2023-09-19T11:34:41;9.27;;;2.05;;
9496;SDS011;4786;51.270;4.456;2023-09-19T11:39:40;7.57;;;1.95;;
9496;SDS011;4786;51.270;4.456;2023-09-19T11:48:20;7.03;;;1.80;;
9496;SDS011;4786;51.270;4.456;2023-09-19T11:50:52;4.40;;;1.80;;
9496;SDS011;4786;51.270;4.456;2023-09-19T11:53:22;5.78;;;1.95;;
9496;SDS011;4786;51.270;4.456;2023-09-19T11:55:49;7.75;;;1.83;;
9496;SDS011;4786;51.270;4.456;2023-09-19T11:58:25;4.72;;;1.88;;
9496;SDS011;4786;51.270;4.456;2023-09-19T12:01:01;8.85;;;2.28;;
9496;SDS011;4786;51.270;4.456;2023-09-19T12:03:32;4.72;;;1.35;;
9496;SDS011;4786;51.270;4.456;2023-09-19T12:06:00;6.10;;;1.77;;
9496;SDS011;4786;51.270;4.456;2023-09-19T12:08:29;5.57;;;1.83;;
9496;SDS011;4786;51.270;4.456;2023-09-19T12:10:58;5.28;;;1.77;;
9496;SDS011;4786;51.270;4.456;2023-09-19T12:13:27;6.00;;;1.73;;
9496;SDS011;4786;51.270;4.456;2023-09-19T12:15:55;5.47;;;1.63;;
9496;SDS011;4786;51.270;4.456;2023-09-19T12:18:30;5.07;;;1.63;;
9496;SDS011;4786;51.270;4.456;2023-09-19T12:20:56;5.82;;;1.73;;
9496;SDS011;4786;51.270;4.456;2023-09-19T12:23:27;6.15;;;1.70;;
9496;SDS011;4786;51.270;4.456;2023-09-19T12:25:55;4.03;;;1.50;;
9496;SDS011;4786;51.270;4.456;2023-09-19T12:28:22;6.80;;;1.50;;
9496;SDS011;4786;51.270;4.456;2023-09-19T12:30:52;7.75;;;1.67;;
9496;SDS011;4786;51.270;4.456;2023-09-19T12:33:20;5.03;;;1.73;;
9496;SDS011;4786;51.270;4.456;2023-09-19T12:35:55;5.10;;;1.60;;
9496;SDS011;4786;51.270;4.456;2023-09-19T12:40:50;4.97;;;1.70;;
9496;SDS011;4786;51.270;4.456;2023-09-19T12:43:20;8.23;;;1.75;;
9496;SDS011;4786;51.270;4.456;2023-09-19T12:45:49;8.25;;;1.60;;
9496;SDS011;4786;51.270;4.456;2023-09-19T12:53:44;4.07;;;1.52;;
9496;SDS011;4786;51.270;4.456;2023-09-19T12:56:14;9.20;;;1.83;;
9496;SDS011;4786;51.270;4.456;2023-09-19T12:58:54;6.30;;;1.80;;
9496;SDS011;4786;51.270;4.456;2023-09-19T13:01:22;12.40;;;1.95;;
9496;SDS011;4786;51.270;4.456;2023-09-19T13:06:37;6.25;;;1.67;;
9496;SDS011;4786;51.270;4.456;2023-09-19T13:09:08;5.47;;;2.00;;
9496;SDS011;4786;51.270;4.456;2023-09-19T13:11:43;7.40;;;2.00;;
9496;SDS011;4786;51.270;4.456;2023-09-19T13:22:51;6.63;;;2.15;;
9496;SDS011;4786;51.270;4.456;2023-09-19T13:25:22;9.70;;;1.95;;
9496;SDS011;4786;51.270;4.456;2023-09-19T13:27:51;6.22;;;1.92;;
9496;SDS011;4786;51.270;4.456;2023-09-19T13:30:19;5.45;;;1.75;;
9496;SDS011;4786;51.270;4.456;2023-09-19T13:32:47;10.02;;;1.95;;
9496;SDS011;4786;51.270;4.456;2023-09-19T13:35:16;7.93;;;2.38;;
9496;SDS011;4786;51.270;4.456;2023-09-19T13:37:46;3.78;;;1.60;;
9496;SDS011;4786;51.270;4.456;2023-09-19T13:40:16;5.18;;;1.83;;
9496;SDS011;4786;51.270;4.456;2023-09-19T13:42:47;7.80;;;2.15;;
9496;SDS011;4786;51.270;4.456;2023-09-19T13:45:13;8.52;;;2.00;;
9496;SDS011;4786;51.270;4.456;2023-09-19T13:47:42;8.70;;;2.13;;
9496;SDS011;4786;51.270;4.456;2023-09-19T13:50:11;6.70;;;2.13;;
9496;SDS011;4786;51.270;4.456;2023-09-19T13:52:42;9.07;;;2.10;;
9496;SDS011;4786;51.270;4.456;2023-09-19T13:55:15;4.38;;;1.75;;
9496;SDS011;4786;51.270;4.456;2023-09-19T13:57:47;5.75;;;2.03;;
9496;SDS011;4786;51.270;4.456;2023-09-19T14:00:19;6.20;;;2.20;;
9496;SDS011;4786;51.270;4.456;2023-09-19T14:02:48;7.05;;;2.15;;
9496;SDS011;4786;51.270;4.456;2023-09-19T14:05:15;6.55;;;1.80;;
9496;SDS011;4786;51.270;4.456;2023-09-19T14:07:48;12.10;;;2.17;;
9496;SDS011;4786;51.270;4.456;2023-09-19T14:10:17;6.20;;;2.17;;
9496;SDS011;4786;51.270;4.456;2023-09-19T14:12:47;6.32;;;2.10;;
9496;SDS011;4786;51.270;4.456;2023-09-19T14:15:15;6.13;;;1.98;;
9496;SDS011;4786;51.270;4.456;2023-09-19T14:17:42;5.53;;;2.17;;
9496;SDS011;4786;51.270;4.456;2023-09-19T14:20:11;4.25;;;2.38;;
9496;SDS011;4786;51.270;4.456;2023-09-19T14:22:37;3.88;;;1.92;;
9496;SDS011;4786;51.270;4.456;2023-09-19T14:25:03;4.45;;;1.88;;
9496;SDS011;4786;51.270;4.456;2023-09-19T14:27:29;5.85;;;1.90;;
9496;SDS011;4786;51.270;4.456;2023-09-19T14:29:56;5.88;;;1.83;;
9496;SDS011;4786;51.270;4.456;2023-09-19T14:32:25;4.63;;;2.08;;
9496;SDS011;4786;51.270;4.456;2023-09-19T14:34:56;5.57;;;1.92;;
9496;SDS011;4786;51.270;4.456;2023-09-19T14:37:25;4.28;;;1.70;;
9496;SDS011;4786;51.270;4.456;2023-09-19T14:39:53;7.15;;;2.10;;
9496;SDS011;4786;51.270;4.456;2023-09-19T14:42:18;4.07;;;2.05;;
9496;SDS011;4786;51.270;4.456;2023-09-19T14:44:50;6.35;;;2.00;;
9496;SDS011;4786;51.270;4.456;2023-09-19T14:47:20;5.35;;;1.98;;
9496;SDS011;4786;51.270;4.456;2023-09-19T14:49:47;4.07;;;1.90;;
9496;SDS011;4786;51.270;4.456;2023-09-19T14:52:13;6.00;;;2.10;;
9496;SDS011;4786;51.270;4.456;2023-09-19T14:54:47;11.40;;;2.40;;
9496;SDS011;4786;51.270;4.456;2023-09-19T14:57:13;11.07;;;2.30;;
9496;SDS011;4786;51.270;4.456;2023-09-19T14:59:42;6.03;;;1.98;;
9496;SDS011;4786;51.270;4.456;2023-09-19T15:02:13;5.38;;;2.13;;
9496;SDS011;4786;51.270;4.456;2023-09-19T15:04:42;4.90;;;2.45;;
9496;SDS011;4786;51.270;4.456;2023-09-19T15:07:14;9.70;;;2.28;;
9496;SDS011;4786;51.270;4.456;2023-09-19T15:09:41;8.88;;;2.50;;
9496;SDS011;4786;51.270;4.456;2023-09-19T15:12:07;5.40;;;2.35;;
9496;SDS011;4786;51.270;4.456;2023-09-19T15:14:33;8.50;;;2.50;;
9496;SDS011;4786;51.270;4.456;2023-09-19T15:16:59;6.82;;;2.22;;
9496;SDS011;4786;51.270;4.456;2023-09-19T15:19:25;5.88;;;2.25;;
9496;SDS011;4786;51.270;4.456;2023-09-19T15:21:57;4.65;;;2.10;;
9496;SDS011;4786;51.270;4.456;2023-09-19T15:24:23;6.70;;;2.40;;
9496;SDS011;4786;51.270;4.456;2023-09-19T15:26:51;4.50;;;2.03;;
9496;SDS011;4786;51.270;4.456;2023-09-19T15:29:17;6.72;;;2.55;;
9496;SDS011;4786;51.270;4.456;2023-09-19T15:31:45;7.60;;;2.65;;
9496;SDS011;4786;51.270;4.456;2023-09-19T15:34:12;9.25;;;2.50;;
9496;SDS011;4786;51.270;4.456;2023-09-19T15:36:41;8.77;;;2.20;;
9496;SDS011;4786;51.270;4.456;2023-09-19T15:39:07;6.10;;;2.38;;
9496;SDS011;4786;51.270;4.456;2023-09-19T15:41:36;7.40;;;2.42;;
9496;SDS011;4786;51.270;4.456;2023-09-19T15:44:04;9.10;;;2.67;;
9496;SDS011;4786;51.270;4.456;2023-09-19T15:46:35;6.45;;;2.22;;
9496;SDS011;4786;51.270;4.456;2023-09-19T15:49:02;5.55;;;2.25;;
9496;SDS011;4786;51.270;4.456;2023-09-19T15:51:28;6.05;;;2.17;;
9496;SDS011;4786;51.270;4.456;2023-09-19T15:54:00;4.15;;;2.05;;
9496;SDS011;4786;51.270;4.456;2023-09-19T15:56:29;6.85;;;2.42;;
9496;SDS011;4786;51.270;4.456;2023-09-19T15:58:59;5.78;;;2.05;;
9496;SDS011;4786;51.270;4.456;2023-09-19T16:01:25;6.43;;;2.58;;
9496;SDS011;4786;51.270;4.456;2023-09-19T16:03:54;7.22;;;2.35;;
9496;SDS011;4786;51.270;4.456;2023-09-19T16:06:27;9.43;;;2.35;;
9496;SDS011;4786;51.270;4.456;2023-09-19T16:08:55;6.40;;;2.60;;
9496;SDS011;4786;51.270;4.456;2023-09-19T16:11:23;5.15;;;2.05;;
9496;SDS011;4786;51.270;4.456;2023-09-19T16:13:55;4.78;;;2.67;;
9496;SDS011;4786;51.270;4.456;2023-09-19T16:16:22;5.43;;;2.65;;
9496;SDS011;4786;51.270;4.456;2023-09-19T16:18:55;9.48;;;2.72;;
9496;SDS011;4786;51.270;4.456;2023-09-19T16:21:25;6.97;;;2.72;;
9496;SDS011;4786;51.270;4.456;2023-09-19T16:23:57;6.32;;;2.25;;
9496;SDS011;4786;51.270;4.456;2023-09-19T16:26:27;5.13;;;2.30;;
9496;SDS011;4786;51.270;4.456;2023-09-19T16:28:54;5.47;;;2.40;;
9496;SDS011;4786;51.270;4.456;2023-09-19T16:31:25;9.85;;;2.55;;
9496;SDS011;4786;51.270;4.456;2023-09-19T16:33:52;6.75;;;2.40;;
9496;SDS011;4786;51.270;4.456;2023-09-19T16:36:19;13.75;;;2.83;;
9496;SDS011;4786;51.270;4.456;2023-09-19T16:38:47;9.13;;;2.72;;
9496;SDS011;4786;51.270;4.456;2023-09-19T16:41:16;5.05;;;2.40;;
9496;SDS011;4786;51.270;4.456;2023-09-19T16:43:46;10.18;;;2.70;;
9496;SDS011;4786;51.270;4.456;2023-09-19T16:46:15;7.70;;;2.55;;